Fort Campbell, Kentucky
Current Conditions -  °F | °C
As of 12:58 AM on Wednesday 26 Nov 2014 (Local Time) from KHOP Reporting Station
Clear Clear  
Wind Chill: 25°   Ceiling: Unl
Heat Index: 30°   Visibility: 10mi
Dew Point: 28°   Wind: 5mph
Humidity: 94%   Direction: 360°N
Pressure: 30.14"   Gusts: NA
Location:  36.65°N, 87.46°W
Report Text: KHOP 260658Z AUTO 36004KT 10SM CLR M01/M02 A3014 RMK AO2 SLP212 T10111020
Loading
Personal Weather Stations






























Interactive Weather Map New forecast layout! Learn more

10-Day Weather Forecast

Advertisements
Track Severe Weather on mobile